sensor_id;sensor_type;location;lat;lon;timestamp;temperature;humidity
24384;DHT22;12504;52.870;8.798;2023-01-25T00:00:08;0.10;99.90
24384;DHT22;12504;52.870;8.798;2023-01-25T00:02:33;0.10;99.90
24384;DHT22;12504;52.870;8.798;2023-01-25T00:04:59;0.10;99.90
24384;DHT22;12504;52.870;8.798;2023-01-25T00:07:25;0.00;99.90
24384;DHT22;12504;52.870;8.798;2023-01-25T00:09:51;0.10;99.90
24384;DHT22;12504;52.870;8.798;2023-01-25T00:12:17;0.00;99.90
24384;DHT22;12504;52.870;8.798;2023-01-25T00:14:42;0.10;99.90
24384;DHT22;12504;52.870;8.798;2023-01-25T00:17:08;0.10;99.90
24384;DHT22;12504;52.870;8.798;2023-01-25T00:19:33;0.10;99.90
24384;DHT22;12504;52.870;8.798;2023-01-25T00:21:59;0.20;99.90
24384;DHT22;12504;52.870;8.798;2023-01-25T00:24:25;0.20;99.90
24384;DHT22;12504;52.870;8.798;2023-01-25T00:26:50;0.20;99.90
24384;DHT22;12504;52.870;8.798;2023-01-25T00:29:16;0.30;99.90
24384;DHT22;12504;52.870;8.798;2023-01-25T00:31:49;0.20;99.90
24384;DHT22;12504;52.870;8.798;2023-01-25T00:36:57;0.10;99.90
24384;DHT22;12504;52.870;8.798;2023-01-25T00:39:26;0.10;99.90
24384;DHT22;12504;52.870;8.798;2023-01-25T00:41:51;0.20;99.90
24384;DHT22;12504;52.870;8.798;2023-01-25T00:44:17;0.10;99.90
24384;DHT22;12504;52.870;8.798;2023-01-25T00:46:43;0.10;99.90
24384;DHT22;12504;52.870;8.798;2023-01-25T00:49:25;0.00;99.90
24384;DHT22;12504;52.870;8.798;2023-01-25T00:51:52;0.00;99.90
24384;DHT22;12504;52.870;8.798;2023-01-25T00:54:19;0.00;99.90
24384;DHT22;12504;52.870;8.798;2023-01-25T00:56:45;0.00;99.90
24384;DHT22;12504;52.870;8.798;2023-01-25T00:59:14;0.10;99.90
24384;DHT22;12504;52.870;8.798;2023-01-25T01:01:40;0.10;99.90
24384;DHT22;12504;52.870;8.798;2023-01-25T01:04:06;0.20;99.90
24384;DHT22;12504;52.870;8.798;2023-01-25T01:06:39;0.20;99.90
24384;DHT22;12504;52.870;8.798;2023-01-25T01:09:07;0.30;99.90
24384;DHT22;12504;52.870;8.798;2023-01-25T01:11:35;0.40;99.90
24384;DHT22;12504;52.870;8.798;2023-01-25T01:14:01;0.40;99.90
24384;DHT22;12504;52.870;8.798;2023-01-25T01:16:30;0.40;99.90
24384;DHT22;12504;52.870;8.798;2023-01-25T01:18:56;0.30;99.90
24384;DHT22;12504;52.870;8.798;2023-01-25T01:21:21;0.40;99.90
24384;DHT22;12504;52.870;8.798;2023-01-25T01:23:47;0.20;99.90
24384;DHT22;12504;52.870;8.798;2023-01-25T01:26:15;0.10;99.90
24384;DHT22;12504;52.870;8.798;2023-01-25T01:28:42;0.10;99.90
24384;DHT22;12504;52.870;8.798;2023-01-25T01:31:11;0.10;99.90
24384;DHT22;12504;52.870;8.798;2023-01-25T01:33:41;0.10;99.90
24384;DHT22;12504;52.870;8.798;2023-01-25T01:36:16;0.10;99.90
24384;DHT22;12504;52.870;8.798;2023-01-25T01:38:42;0.20;99.90
24384;DHT22;12504;52.870;8.798;2023-01-25T01:41:09;0.20;99.90
24384;DHT22;12504;52.870;8.798;2023-01-25T01:43:35;0.20;99.90
24384;DHT22;12504;52.870;8.798;2023-01-25T01:48:57;0.20;99.90
24384;DHT22;12504;52.870;8.798;2023-01-25T01:51:42;0.20;99.90
24384;DHT22;12504;52.870;8.798;2023-01-25T01:57:08;0.20;99.90
24384;DHT22;12504;52.870;8.798;2023-01-25T02:00:02;0.20;99.90
24384;DHT22;12504;52.870;8.798;2023-01-25T02:02:38;0.20;99.90
24384;DHT22;12504;52.870;8.798;2023-01-25T02:05:07;0.20;99.90
24384;DHT22;12504;52.870;8.798;2023-01-25T02:07:36;0.20;99.90
24384;DHT22;12504;52.870;8.798;2023-01-25T02:10:04;0.20;99.90
24384;DHT22;12504;52.870;8.798;2023-01-25T02:12:31;0.10;99.90
24384;DHT22;12504;52.870;8.798;2023-01-25T02:14:56;0.20;99.90
24384;DHT22;12504;52.870;8.798;2023-01-25T02:17:31;0.10;99.90
24384;DHT22;12504;52.870;8.798;2023-01-25T02:20:09;0.00;99.90
24384;DHT22;12504;52.870;8.798;2023-01-25T02:25:40;0.00;99.90
24384;DHT22;12504;52.870;8.798;2023-01-25T02:30:39;0.00;99.90
24384;DHT22;12504;52.870;8.798;2023-01-25T02:33:05;0.00;99.90
24384;DHT22;12504;52.870;8.798;2023-01-25T02:35:43;0.00;99.90
24384;DHT22;12504;52.870;8.798;2023-01-25T02:38:15;0.10;99.90
24384;DHT22;12504;52.870;8.798;2023-01-25T02:41:08;0.10;99.90
24384;DHT22;12504;52.870;8.798;2023-01-25T02:43:33;0.00;99.90
24384;DHT22;12504;52.870;8.798;2023-01-25T02:48:35;-0.10;99.90
24384;DHT22;12504;52.870;8.798;2023-01-25T02:51:01;0.00;99.90
24384;DHT22;12504;52.870;8.798;2023-01-25T02:53:27;-0.10;99.90
24384;DHT22;12504;52.870;8.798;2023-01-25T02:55:53;-0.10;99.90
24384;DHT22;12504;52.870;8.798;2023-01-25T02:58:18;-0.10;99.90
24384;DHT22;12504;52.870;8.798;2023-01-25T03:00:44;-0.10;99.90
24384;DHT22;12504;52.870;8.798;2023-01-25T03:03:09;-0.20;99.90
24384;DHT22;12504;52.870;8.798;2023-01-25T03:05:35;-0.30;99.90
24384;DHT22;12504;52.870;8.798;2023-01-25T03:08:01;-0.30;99.90
24384;DHT22;12504;52.870;8.798;2023-01-25T03:10:26;-0.40;99.90
24384;DHT22;12504;52.870;8.798;2023-01-25T03:12:54;-0.30;99.90
24384;DHT22;12504;52.870;8.798;2023-01-25T03:15:21;-0.30;99.90
24384;DHT22;12504;52.870;8.798;2023-01-25T03:17:46;-0.20;99.90
24384;DHT22;12504;52.870;8.798;2023-01-25T03:20:12;-0.10;99.90
24384;DHT22;12504;52.870;8.798;2023-01-25T03:22:38;-0.10;99.90
24384;DHT22;12504;52.870;8.798;2023-01-25T03:25:04;0.00;99.90
24384;DHT22;12504;52.870;8.798;2023-01-25T03:27:33;-0.10;99.90
24384;DHT22;12504;52.870;8.798;2023-01-25T03:30:04;-0.10;99.90
24384;DHT22;12504;52.870;8.798;2023-01-25T03:32:32;-0.10;99.90
24384;DHT22;12504;52.870;8.798;2023-01-25T03:35:03;-0.10;99.90
24384;DHT22;12504;52.870;8.798;2023-01-25T03:37:29;-0.10;99.90
24384;DHT22;12504;52.870;8.798;2023-01-25T03:39:59;-0.20;99.90
24384;DHT22;12504;52.870;8.798;2023-01-25T03:42:25;-0.20;99.90
24384;DHT22;12504;52.870;8.798;2023-01-25T03:44:56;-0.30;99.90
24384;DHT22;12504;52.870;8.798;2023-01-25T03:47:22;-0.30;99.90
24384;DHT22;12504;52.870;8.798;2023-01-25T03:49:47;-0.20;99.90
24384;DHT22;12504;52.870;8.798;2023-01-25T03:52:16;-0.20;99.90
24384;DHT22;12504;52.870;8.798;2023-01-25T03:54:42;-0.30;99.90
24384;DHT22;12504;52.870;8.798;2023-01-25T03:57:09;-0.40;99.90
24384;DHT22;12504;52.870;8.798;2023-01-25T04:00:01;-0.50;99.90
24384;DHT22;12504;52.870;8.798;2023-01-25T04:02:30;-0.50;99.90
24384;DHT22;12504;52.870;8.798;2023-01-25T04:04:56;-0.50;99.90
24384;DHT22;12504;52.870;8.798;2023-01-25T04:07:21;-0.40;99.90
24384;DHT22;12504;52.870;8.798;2023-01-25T04:09:47;-0.30;99.90
24384;DHT22;12504;52.870;8.798;2023-01-25T04:12:15;-0.40;99.90
24384;DHT22;12504;52.870;8.798;2023-01-25T04:14:41;-0.40;99.90
24384;DHT22;12504;52.870;8.798;2023-01-25T04:17:08;-0.40;99.90
24384;DHT22;12504;52.870;8.798;2023-01-25T04:19:37;-0.40;99.90
24384;DHT22;12504;52.870;8.798;2023-01-25T04:22:05;-0.30;99.90
24384;DHT22;12504;52.870;8.798;2023-01-25T04:24:35;-0.50;99.90
24384;DHT22;12504;52.870;8.798;2023-01-25T04:27:01;-0.40;99.90
24384;DHT22;12504;52.870;8.798;2023-01-25T04:29:31;-0.50;99.90
24384;DHT22;12504;52.870;8.798;2023-01-25T04:31:57;-0.50;99.90
24384;DHT22;12504;52.870;8.798;2023-01-25T04:34:23;-0.40;99.90
24384;DHT22;12504;52.870;8.798;2023-01-25T04:36:49;-0.30;99.90
24384;DHT22;12504;52.870;8.798;2023-01-25T04:39:15;-0.30;99.90
24384;DHT22;12504;52.870;8.798;2023-01-25T04:41:41;-0.40;99.90
24384;DHT22;12504;52.870;8.798;2023-01-25T04:44:06;-0.40;99.90
24384;DHT22;12504;52.870;8.798;2023-01-25T04:46:34;-0.30;99.90
24384;DHT22;12504;52.870;8.798;2023-01-25T04:49:00;-0.20;99.90
24384;DHT22;12504;52.870;8.798;2023-01-25T04:51:26;-0.20;99.90
24384;DHT22;12504;52.870;8.798;2023-01-25T04:53:51;-0.20;99.90
24384;DHT22;12504;52.870;8.798;2023-01-25T04:56:17;-0.30;99.90
24384;DHT22;12504;52.870;8.798;2023-01-25T04:58:51;-0.30;99.90
24384;DHT22;12504;52.870;8.798;2023-01-25T05:01:17;-0.30;99.90
24384;DHT22;12504;52.870;8.798;2023-01-25T05:03:42;-0.40;99.90
24384;DHT22;12504;52.870;8.798;2023-01-25T05:06:17;-0.40;99.90
24384;DHT22;12504;52.870;8.798;2023-01-25T05:08:43;-0.30;99.90
24384;DHT22;12504;52.870;8.798;2023-01-25T05:11:09;-0.40;99.90
24384;DHT22;12504;52.870;8.798;2023-01-25T05:13:54;-0.30;99.90
24384;DHT22;12504;52.870;8.798;2023-01-25T05:16:27;-0.30;99.90
24384;DHT22;12504;52.870;8.798;2023-01-25T05:18:56;-0.40;99.90
24384;DHT22;12504;52.870;8.798;2023-01-25T05:21:30;-0.30;99.90
24384;DHT22;12504;52.870;8.798;2023-01-25T05:24:14;-0.30;99.90
24384;DHT22;12504;52.870;8.798;2023-01-25T05:26:41;-0.30;99.90
24384;DHT22;12504;52.870;8.798;2023-01-25T05:29:27;-0.20;99.90
24384;DHT22;12504;52.870;8.798;2023-01-25T05:32:05;-0.20;99.90
24384;DHT22;12504;52.870;8.798;2023-01-25T05:34:31;-0.20;99.90
24384;DHT22;12504;52.870;8.798;2023-01-25T05:36:58;-0.20;99.90
24384;DHT22;12504;52.870;8.798;2023-01-25T05:39:24;-0.20;99.90
24384;DHT22;12504;52.870;8.798;2023-01-25T05:41:51;-0.20;99.90
24384;DHT22;12504;52.870;8.798;2023-01-25T05:44:17;-0.20;99.90
24384;DHT22;12504;52.870;8.798;2023-01-25T05:46:46;-0.20;99.90
24384;DHT22;12504;52.870;8.798;2023-01-25T05:49:12;-0.30;99.90
24384;DHT22;12504;52.870;8.798;2023-01-25T05:51:39;-0.20;99.90
24384;DHT22;12504;52.870;8.798;2023-01-25T05:54:05;-0.20;99.90
24384;DHT22;12504;52.870;8.798;2023-01-25T05:56:32;-0.20;99.90
24384;DHT22;12504;52.870;8.798;2023-01-25T05:58:59;-0.20;99.90
24384;DHT22;12504;52.870;8.798;2023-01-25T06:01:26;-0.20;99.90
24384;DHT22;12504;52.870;8.798;2023-01-25T06:03:56;-0.20;99.90
24384;DHT22;12504;52.870;8.798;2023-01-25T06:06:24;-0.20;99.90
24384;DHT22;12504;52.870;8.798;2023-01-25T06:08:51;-0.30;99.90
24384;DHT22;12504;52.870;8.798;2023-01-25T06:11:20;-0.30;99.90
24384;DHT22;12504;52.870;8.798;2023-01-25T06:13:48;-0.30;99.90
24384;DHT22;12504;52.870;8.798;2023-01-25T06:16:15;-0.30;99.90
24384;DHT22;12504;52.870;8.798;2023-01-25T06:18:40;-0.20;99.90
24384;DHT22;12504;52.870;8.798;2023-01-25T06:21:13;-0.20;99.90
24384;DHT22;12504;52.870;8.798;2023-01-25T06:23:38;-0.20;99.90
24384;DHT22;12504;52.870;8.798;2023-01-25T06:26:07;-0.20;99.90
24384;DHT22;12504;52.870;8.798;2023-01-25T06:28:36;-0.20;99.90
24384;DHT22;12504;52.870;8.798;2023-01-25T06:31:03;-0.20;99.90
24384;DHT22;12504;52.870;8.798;2023-01-25T06:33:29;-0.20;99.90
24384;DHT22;12504;52.870;8.798;2023-01-25T06:36:00;-0.20;99.90
24384;DHT22;12504;52.870;8.798;2023-01-25T06:38:25;-0.20;99.90
24384;DHT22;12504;52.870;8.798;2023-01-25T06:40:51;-0.30;99.90
24384;DHT22;12504;52.870;8.798;2023-01-25T06:43:17;-0.30;99.90
24384;DHT22;12504;52.870;8.798;2023-01-25T06:45:42;-0.30;99.90
24384;DHT22;12504;52.870;8.798;2023-01-25T06:48:09;-0.30;99.90
24384;DHT22;12504;52.870;8.798;2023-01-25T06:50:34;-0.30;99.90
24384;DHT22;12504;52.870;8.798;2023-01-25T06:53:00;-0.30;99.90
24384;DHT22;12504;52.870;8.798;2023-01-25T06:55:26;-0.30;99.90
24384;DHT22;12504;52.870;8.798;2023-01-25T06:57:51;-0.30;99.90
24384;DHT22;12504;52.870;8.798;2023-01-25T07:00:17;-0.30;99.90
24384;DHT22;12504;52.870;8.798;2023-01-25T07:02:43;-0.30;99.90
24384;DHT22;12504;52.870;8.798;2023-01-25T07:05:09;-0.30;99.90
24384;DHT22;12504;52.870;8.798;2023-01-25T07:07:35;-0.30;99.90
24384;DHT22;12504;52.870;8.798;2023-01-25T07:10:00;-0.20;99.90
24384;DHT22;12504;52.870;8.798;2023-01-25T07:12:29;-0.20;99.90
24384;DHT22;12504;52.870;8.798;2023-01-25T07:14:55;-0.30;99.90
24384;DHT22;12504;52.870;8.798;2023-01-25T07:17:21;-0.30;99.90
24384;DHT22;12504;52.870;8.798;2023-01-25T07:19:47;-0.20;99.90
24384;DHT22;12504;52.870;8.798;2023-01-25T07:22:12;-0.20;99.90
24384;DHT22;12504;52.870;8.798;2023-01-25T07:24:38;-0.20;99.90
24384;DHT22;12504;52.870;8.798;2023-01-25T07:27:04;-0.30;99.90
24384;DHT22;12504;52.870;8.798;2023-01-25T07:29:29;-0.30;99.90
24384;DHT22;12504;52.870;8.798;2023-01-25T07:31:55;-0.40;99.90
24384;DHT22;12504;52.870;8.798;2023-01-25T07:34:21;-0.30;99.90
24384;DHT22;12504;52.870;8.798;2023-01-25T07:36:47;-0.30;99.90
24384;DHT22;12504;52.870;8.798;2023-01-25T07:39:12;-0.40;99.90
24384;DHT22;12504;52.870;8.798;2023-01-25T07:41:39;-0.40;99.90
24384;DHT22;12504;52.870;8.798;2023-01-25T07:44:09;-0.40;99.90
24384;DHT22;12504;52.870;8.798;2023-01-25T07:46:42;-0.30;99.90
24384;DHT22;12504;52.870;8.798;2023-01-25T07:49:08;-0.30;99.90
24384;DHT22;12504;52.870;8.798;2023-01-25T07:51:34;-0.40;99.90
24384;DHT22;12504;52.870;8.798;2023-01-25T07:54:02;-0.40;99.90
24384;DHT22;12504;52.870;8.798;2023-01-25T07:56:33;-0.40;99.90
24384;DHT22;12504;52.870;8.798;2023-01-25T07:59:00;-0.30;99.90
24384;DHT22;12504;52.870;8.798;2023-01-25T08:01:28;-0.40;99.90
24384;DHT22;12504;52.870;8.798;2023-01-25T08:03:55;-0.40;99.90
24384;DHT22;12504;52.870;8.798;2023-01-25T08:06:32;-0.40;99.90
24384;DHT22;12504;52.870;8.798;2023-01-25T08:09:21;-0.40;99.90
24384;DHT22;12504;52.870;8.798;2023-01-25T08:11:47;-0.40;99.90
24384;DHT22;12504;52.870;8.798;2023-01-25T08:14:14;-0.40;99.90
24384;DHT22;12504;52.870;8.798;2023-01-25T08:16:40;-0.40;99.90
24384;DHT22;12504;52.870;8.798;2023-01-25T08:19:05;-0.30;99.90
24384;DHT22;12504;52.870;8.798;2023-01-25T08:21:33;-0.30;99.90
24384;DHT22;12504;52.870;8.798;2023-01-25T08:24:00;-0.40;99.90
24384;DHT22;12504;52.870;8.798;2023-01-25T08:26:27;-0.40;99.90
24384;DHT22;12504;52.870;8.798;2023-01-25T08:28:53;-0.40;99.90
24384;DHT22;12504;52.870;8.798;2023-01-25T08:31:22;-0.40;99.90
24384;DHT22;12504;52.870;8.798;2023-01-25T08:33:49;-0.40;99.90
24384;DHT22;12504;52.870;8.798;2023-01-25T08:36:16;-0.40;99.90
24384;DHT22;12504;52.870;8.798;2023-01-25T08:38:46;-0.40;99.90
24384;DHT22;12504;52.870;8.798;2023-01-25T08:41:15;-0.50;99.90
24384;DHT22;12504;52.870;8.798;2023-01-25T08:43:42;-0.40;99.90
24384;DHT22;12504;52.870;8.798;2023-01-25T08:46:08;-0.40;99.90
24384;DHT22;12504;52.870;8.798;2023-01-25T08:48:34;-0.50;99.90
24384;DHT22;12504;52.870;8.798;2023-01-25T08:51:00;-0.40;99.90
24384;DHT22;12504;52.870;8.798;2023-01-25T08:53:30;-0.40;99.90
24384;DHT22;12504;52.870;8.798;2023-01-25T08:56:02;-0.40;99.90
24384;DHT22;12504;52.870;8.798;2023-01-25T08:58:28;-0.30;99.90
24384;DHT22;12504;52.870;8.798;2023-01-25T09:01:00;-0.30;99.90
24384;DHT22;12504;52.870;8.798;2023-01-25T09:03:26;-0.30;99.90
24384;DHT22;12504;52.870;8.798;2023-01-25T09:05:52;-0.30;99.90
24384;DHT22;12504;52.870;8.798;2023-01-25T09:08:18;-0.30;99.90
24384;DHT22;12504;52.870;8.798;2023-01-25T09:10:44;-0.30;99.90
24384;DHT22;12504;52.870;8.798;2023-01-25T09:13:09;-0.30;99.90
24384;DHT22;12504;52.870;8.798;2023-01-25T09:15:36;-0.40;99.90
24384;DHT22;12504;52.870;8.798;2023-01-25T09:18:01;-0.40;99.90
24384;DHT22;12504;52.870;8.798;2023-01-25T09:20:27;-0.40;99.90
24384;DHT22;12504;52.870;8.798;2023-01-25T09:22:54;-0.40;99.90
24384;DHT22;12504;52.870;8.798;2023-01-25T09:25:20;-0.40;99.90
24384;DHT22;12504;52.870;8.798;2023-01-25T09:27:48;-0.40;99.90
24384;DHT22;12504;52.870;8.798;2023-01-25T09:30:16;-0.40;99.90
24384;DHT22;12504;52.870;8.798;2023-01-25T09:32:43;-0.40;99.90
24384;DHT22;12504;52.870;8.798;2023-01-25T09:35:09;-0.30;99.90
24384;DHT22;12504;52.870;8.798;2023-01-25T09:37:35;-0.40;99.90
24384;DHT22;12504;52.870;8.798;2023-01-25T09:40:00;-0.40;99.90
24384;DHT22;12504;52.870;8.798;2023-01-25T09:42:56;-0.40;99.90
24384;DHT22;12504;52.870;8.798;2023-01-25T09:45:29;-0.50;99.90
24384;DHT22;12504;52.870;8.798;2023-01-25T09:51:15;-0.40;99.90
24384;DHT22;12504;52.870;8.798;2023-01-25T09:53:51;-0.30;99.90
24384;DHT22;12504;52.870;8.798;2023-01-25T09:56:24;-0.30;99.90
24384;DHT22;12504;52.870;8.798;2023-01-25T09:59:11;-0.30;99.90
24384;DHT22;12504;52.870;8.798;2023-01-25T10:04:18;-0.40;99.90
24384;DHT22;12504;52.870;8.798;2023-01-25T10:06:49;-0.30;99.90
24384;DHT22;12504;52.870;8.798;2023-01-25T10:09:30;-0.20;99.90
24384;DHT22;12504;52.870;8.798;2023-01-25T10:12:21;-0.20;99.90
24384;DHT22;12504;52.870;8.798;2023-01-25T10:14:49;-0.20;99.90
24384;DHT22;12504;52.870;8.798;2023-01-25T10:22:27;-0.30;99.90
24384;DHT22;12504;52.870;8.798;2023-01-25T10:25:30;-0.30;99.90
24384;DHT22;12504;52.870;8.798;2023-01-25T10:31:05;-0.30;99.90
24384;DHT22;12504;52.870;8.798;2023-01-25T10:33:33;-0.30;99.90
24384;DHT22;12504;52.870;8.798;2023-01-25T10:36:01;-0.30;99.90
24384;DHT22;12504;52.870;8.798;2023-01-25T10:38:39;-0.30;99.90
24384;DHT22;12504;52.870;8.798;2023-01-25T10:41:23;-0.30;99.90
24384;DHT22;12504;52.870;8.798;2023-01-25T10:43:51;-0.20;99.90
24384;DHT22;12504;52.870;8.798;2023-01-25T10:46:38;-0.30;99.90
24384;DHT22;12504;52.870;8.798;2023-01-25T10:49:24;-0.20;99.90
24384;DHT22;12504;52.870;8.798;2023-01-25T10:51:51;-0.30;99.90
24384;DHT22;12504;52.870;8.798;2023-01-25T10:54:17;-0.30;99.90
24384;DHT22;12504;52.870;8.798;2023-01-25T10:56:44;-0.30;99.90
24384;DHT22;12504;52.870;8.798;2023-01-25T10:59:21;-0.30;99.90
24384;DHT22;12504;52.870;8.798;2023-01-25T11:01:48;-0.30;99.90
24384;DHT22;12504;52.870;8.798;2023-01-25T11:04:34;-0.30;99.90
24384;DHT22;12504;52.870;8.798;2023-01-25T11:07:02;-0.40;99.90
24384;DHT22;12504;52.870;8.798;2023-01-25T11:09:37;-0.40;99.90
24384;DHT22;12504;52.870;8.798;2023-01-25T11:12:14;-0.40;99.90
24384;DHT22;12504;52.870;8.798;2023-01-25T11:14:42;-0.40;99.90
24384;DHT22;12504;52.870;8.798;2023-01-25T11:17:21;-0.40;99.90
24384;DHT22;12504;52.870;8.798;2023-01-25T11:19:47;-0.40;99.90
24384;DHT22;12504;52.870;8.798;2023-01-25T11:22:21;-0.50;99.90
24384;DHT22;12504;52.870;8.798;2023-01-25T11:24:48;-0.50;99.90
24384;DHT22;12504;52.870;8.798;2023-01-25T11:27:26;-0.40;99.90
24384;DHT22;12504;52.870;8.798;2023-01-25T11:32:31;-0.30;99.90
24384;DHT22;12504;52.870;8.798;2023-01-25T11:34:57;-0.40;99.90
24384;DHT22;12504;52.870;8.798;2023-01-25T11:48:33;-0.40;99.90
24384;DHT22;12504;52.870;8.798;2023-01-25T11:56:32;-0.40;99.90
24384;DHT22;12504;52.870;8.798;2023-01-25T11:59:08;-0.50;99.90
24384;DHT22;12504;52.870;8.798;2023-01-25T12:05:09;-0.50;99.90
24384;DHT22;12504;52.870;8.798;2023-01-25T12:08:29;-0.50;99.90
24384;DHT22;12504;52.870;8.798;2023-01-25T12:10:51;-0.50;99.90
24384;DHT22;12504;52.870;8.798;2023-01-25T12:16:34;-0.50;99.90
24384;DHT22;12504;52.870;8.798;2023-01-25T12:19:24;-0.50;99.90
24384;DHT22;12504;52.870;8.798;2023-01-25T12:22:17;-0.50;99.90
24384;DHT22;12504;52.870;8.798;2023-01-25T12:27:30;-0.60;99.90
24384;DHT22;12504;52.870;8.798;2023-01-25T12:30:10;-0.60;99.90
24384;DHT22;12504;52.870;8.798;2023-01-25T12:33:07;-0.60;99.90
24384;DHT22;12504;52.870;8.798;2023-01-25T12:35:45;-0.50;99.90
24384;DHT22;12504;52.870;8.798;2023-01-25T12:38:21;-0.50;99.90
24384;DHT22;12504;52.870;8.798;2023-01-25T12:40:54;-0.50;99.90
24384;DHT22;12504;52.870;8.798;2023-01-25T12:43:40;-0.40;99.90
24384;DHT22;12504;52.870;8.798;2023-01-25T12:46:16;-0.40;99.90
24384;DHT22;12504;52.870;8.798;2023-01-25T12:48:49;-0.50;99.90
24384;DHT22;12504;52.870;8.798;2023-01-25T12:51:17;-0.60;99.90
24384;DHT22;12504;52.870;8.798;2023-01-25T12:53:45;-0.60;99.90
24384;DHT22;12504;52.870;8.798;2023-01-25T12:59:22;-0.60;99.90
24384;DHT22;12504;52.870;8.798;2023-01-25T13:02:07;-0.60;99.90
24384;DHT22;12504;52.870;8.798;2023-01-25T13:04:56;-0.60;99.90
24384;DHT22;12504;52.870;8.798;2023-01-25T13:10:19;-0.60;99.90
24384;DHT22;12504;52.870;8.798;2023-01-25T13:15:37;-0.70;99.90
24384;DHT22;12504;52.870;8.798;2023-01-25T13:20:56;-0.60;99.90
24384;DHT22;12504;52.870;8.798;2023-01-25T13:28:45;-0.60;99.90
24384;DHT22;12504;52.870;8.798;2023-01-25T13:36:52;-0.80;99.90
24384;DHT22;12504;52.870;8.798;2023-01-25T13:44:46;-0.90;99.90
24384;DHT22;12504;52.870;8.798;2023-01-25T13:47:14;-0.90;99.90
24384;DHT22;12504;52.870;8.798;2023-01-25T13:52:23;-0.80;99.90
24384;DHT22;12504;52.870;8.798;2023-01-25T13:54:54;-0.80;99.90
24384;DHT22;12504;52.870;8.798;2023-01-25T13:57:23;-0.80;99.90
24384;DHT22;12504;52.870;8.798;2023-01-25T14:00:03;-0.80;99.90
24384;DHT22;12504;52.870;8.798;2023-01-25T14:02:30;-0.80;99.90
24384;DHT22;12504;52.870;8.798;2023-01-25T14:04:56;-0.90;99.90
24384;DHT22;12504;52.870;8.798;2023-01-25T14:07:31;-0.80;99.90
24384;DHT22;12504;52.870;8.798;2023-01-25T14:10:06;-0.90;99.90
24384;DHT22;12504;52.870;8.798;2023-01-25T14:12:40;-0.90;99.90
24384;DHT22;12504;52.870;8.798;2023-01-25T14:15:23;-0.90;99.90
24384;DHT22;12504;52.870;8.798;2023-01-25T14:18:17;-0.90;99.90
24384;DHT22;12504;52.870;8.798;2023-01-25T14:20:50;-0.90;99.90
24384;DHT22;12504;52.870;8.798;2023-01-25T14:25:48;-0.80;99.90
24384;DHT22;12504;52.870;8.798;2023-01-25T14:28:14;-0.90;99.90
24384;DHT22;12504;52.870;8.798;2023-01-25T14:30:40;-0.80;99.90
24384;DHT22;12504;52.870;8.798;2023-01-25T14:33:30;-0.90;99.90
24384;DHT22;12504;52.870;8.798;2023-01-25T14:36:15;-0.90;99.90
24384;DHT22;12504;52.870;8.798;2023-01-25T14:38:42;-0.90;99.90
24384;DHT22;12504;52.870;8.798;2023-01-25T14:41:15;-0.90;99.90
24384;DHT22;12504;52.870;8.798;2023-01-25T14:43:44;-0.90;99.90
24384;DHT22;12504;52.870;8.798;2023-01-25T14:46:28;-0.90;99.90
24384;DHT22;12504;52.870;8.798;2023-01-25T14:49:16;-0.90;99.90
24384;DHT22;12504;52.870;8.798;2023-01-25T14:52:01;-0.90;99.90
24384;DHT22;12504;52.870;8.798;2023-01-25T14:54:30;-0.90;99.90
24384;DHT22;12504;52.870;8.798;2023-01-25T14:57:02;-0.90;99.90
24384;DHT22;12504;52.870;8.798;2023-01-25T14:59:43;-0.90;99.90
24384;DHT22;12504;52.870;8.798;2023-01-25T15:04:38;-0.90;99.90
24384;DHT22;12504;52.870;8.798;2023-01-25T15:07:04;-1.00;99.90
24384;DHT22;12504;52.870;8.798;2023-01-25T15:12:27;-1.10;99.90
24384;DHT22;12504;52.870;8.798;2023-01-25T15:14:55;-1.10;99.90
24384;DHT22;12504;52.870;8.798;2023-01-25T15:17:46;-1.10;99.90
24384;DHT22;12504;52.870;8.798;2023-01-25T15:20:27;-1.10;99.90
24384;DHT22;12504;52.870;8.798;2023-01-25T15:22:55;-1.00;99.90
24384;DHT22;12504;52.870;8.798;2023-01-25T15:25:22;-1.10;99.90
24384;DHT22;12504;52.870;8.798;2023-01-25T15:27:48;-1.00;99.90
24384;DHT22;12504;52.870;8.798;2023-01-25T15:30:15;-1.10;99.90
24384;DHT22;12504;52.870;8.798;2023-01-25T15:32:42;-1.10;99.90
24384;DHT22;12504;52.870;8.798;2023-01-25T15:35:17;-1.10;99.90
24384;DHT22;12504;52.870;8.798;2023-01-25T15:37:44;-1.10;99.90
24384;DHT22;12504;52.870;8.798;2023-01-25T15:40:10;-1.10;99.90
24384;DHT22;12504;52.870;8.798;2023-01-25T15:42:37;-1.10;99.90
24384;DHT22;12504;52.870;8.798;2023-01-25T15:45:03;-1.20;99.90
24384;DHT22;12504;52.870;8.798;2023-01-25T15:47:29;-1.20;99.90
24384;DHT22;12504;52.870;8.798;2023-01-25T15:49:55;-1.30;99.90
24384;DHT22;12504;52.870;8.798;2023-01-25T15:52:21;-1.30;99.90
24384;DHT22;12504;52.870;8.798;2023-01-25T15:54:47;-1.30;99.90
24384;DHT22;12504;52.870;8.798;2023-01-25T15:57:31;-1.30;99.90
24384;DHT22;12504;52.870;8.798;2023-01-25T15:59:58;-1.30;99.90
24384;DHT22;12504;52.870;8.798;2023-01-25T16:02:24;-1.20;99.90
24384;DHT22;12504;52.870;8.798;2023-01-25T16:04:51;-1.20;99.90
24384;DHT22;12504;52.870;8.798;2023-01-25T16:07:27;-1.20;99.90
24384;DHT22;12504;52.870;8.798;2023-01-25T16:09:53;-1.20;99.90
24384;DHT22;12504;52.870;8.798;2023-01-25T16:12:19;-1.30;99.90
24384;DHT22;12504;52.870;8.798;2023-01-25T16:14:47;-1.30;99.90
24384;DHT22;12504;52.870;8.798;2023-01-25T16:17:20;-1.30;99.90
24384;DHT22;12504;52.870;8.798;2023-01-25T16:19:46;-1.40;99.90
24384;DHT22;12504;52.870;8.798;2023-01-25T16:22:16;-1.40;99.90
24384;DHT22;12504;52.870;8.798;2023-01-25T16:24:43;-1.40;99.90
24384;DHT22;12504;52.870;8.798;2023-01-25T16:27:15;-1.40;99.90
24384;DHT22;12504;52.870;8.798;2023-01-25T16:29:45;-1.40;99.90
24384;DHT22;12504;52.870;8.798;2023-01-25T16:32:11;-1.40;99.90
24384;DHT22;12504;52.870;8.798;2023-01-25T16:34:37;-1.40;99.90
24384;DHT22;12504;52.870;8.798;2023-01-25T16:37:03;-1.40;99.90
24384;DHT22;12504;52.870;8.798;2023-01-25T16:39:28;-1.40;99.90
24384;DHT22;12504;52.870;8.798;2023-01-25T16:41:56;-1.40;99.90
24384;DHT22;12504;52.870;8.798;2023-01-25T16:44:22;-1.40;99.90
24384;DHT22;12504;52.870;8.798;2023-01-25T16:46:48;-1.50;99.90
24384;DHT22;12504;52.870;8.798;2023-01-25T16:49:22;-1.50;99.90
24384;DHT22;12504;52.870;8.798;2023-01-25T16:51:51;-1.50;99.90
24384;DHT22;12504;52.870;8.798;2023-01-25T16:54:18;-1.50;99.90
24384;DHT22;12504;52.870;8.798;2023-01-25T16:56:44;-1.60;99.90
24384;DHT22;12504;52.870;8.798;2023-01-25T16:59:10;-1.60;99.90
24384;DHT22;12504;52.870;8.798;2023-01-25T17:01:36;-1.60;99.90
24384;DHT22;12504;52.870;8.798;2023-01-25T17:04:06;-1.60;99.90
24384;DHT22;12504;52.870;8.798;2023-01-25T17:06:35;-1.50;99.90
24384;DHT22;12504;52.870;8.798;2023-01-25T17:09:03;-1.60;99.90
24384;DHT22;12504;52.870;8.798;2023-01-25T17:11:30;-1.50;99.90
24384;DHT22;12504;52.870;8.798;2023-01-25T17:13:57;-1.50;99.90
24384;DHT22;12504;52.870;8.798;2023-01-25T17:16:25;-1.60;99.90
24384;DHT22;12504;52.870;8.798;2023-01-25T17:18:58;-1.50;99.90
24384;DHT22;12504;52.870;8.798;2023-01-25T17:21:25;-1.40;99.90
24384;DHT22;12504;52.870;8.798;2023-01-25T17:23:51;-1.50;99.90
24384;DHT22;12504;52.870;8.798;2023-01-25T17:26:18;-1.40;99.90